createdAt,value
2018-07-27T00:00:40.885Z,23.90
2018-07-27T00:03:08.775Z,23.95
2018-07-27T00:05:36.644Z,24.02
2018-07-27T00:08:04.625Z,24.15
2018-07-27T00:10:32.525Z,24.25
2018-07-27T00:13:00.395Z,24.35
2018-07-27T00:15:28.277Z,24.37
2018-07-27T00:17:56.166Z,24.47
2018-07-27T00:20:23.981Z,24.48
2018-07-27T00:22:51.908Z,24.59
2018-07-27T00:25:19.737Z,24.56
2018-07-27T00:27:47.637Z,24.58
2018-07-27T00:30:15.506Z,24.45
2018-07-27T00:32:43.397Z,24.32
2018-07-27T00:35:11.240Z,24.22
2018-07-27T00:37:39.094Z,24.19
2018-07-27T00:40:06.959Z,24.06
2018-07-27T00:42:34.830Z,24.01
2018-07-27T00:45:02.690Z,23.89
2018-07-27T00:47:30.609Z,23.92
2018-07-27T00:49:58.430Z,23.78
2018-07-27T00:52:26.246Z,23.82
2018-07-27T00:54:54.179Z,23.90
2018-07-27T00:57:22.057Z,23.99
2018-07-27T00:59:49.905Z,23.97
2018-07-27T01:02:17.797Z,23.92
2018-07-27T01:04:45.641Z,23.97
2018-07-27T01:07:13.514Z,24.10
2018-07-27T01:09:41.409Z,24.01
2018-07-27T01:12:09.279Z,24.13
2018-07-27T01:14:37.099Z,23.99
2018-07-27T01:17:04.959Z,23.89
2018-07-27T01:19:32.844Z,23.83
2018-07-27T01:22:00.785Z,23.76
2018-07-27T01:24:28.638Z,23.85
2018-07-27T01:26:56.508Z,23.81
2018-07-27T01:29:24.372Z,23.76
2018-07-27T01:31:52.199Z,23.89
2018-07-27T01:34:20.079Z,23.98
2018-07-27T01:36:47.910Z,23.94
2018-07-27T01:39:15.740Z,24.00
2018-07-27T01:41:43.773Z,24.04
2018-07-27T01:44:11.892Z,24.01
2018-07-27T01:46:40.377Z,23.97
2018-07-27T01:49:09.010Z,23.97
2018-07-27T01:51:36.848Z,23.88
2018-07-27T01:54:04.852Z,23.74
2018-07-27T01:56:32.915Z,23.77
2018-07-27T01:59:00.856Z,23.61
2018-07-27T02:01:28.693Z,23.60
2018-07-27T02:03:56.563Z,23.59
2018-07-27T02:06:24.465Z,23.62
2018-07-27T02:08:52.305Z,23.62
2018-07-27T02:11:20.173Z,23.58
2018-07-27T02:13:48.041Z,23.60
2018-07-27T02:16:15.870Z,23.60
2018-07-27T02:18:43.727Z,23.55
2018-07-27T02:21:11.540Z,23.58
2018-07-27T02:23:41.418Z,23.58
2018-07-27T02:26:09.231Z,23.58
2018-07-27T02:28:37.109Z,23.56
2018-07-27T02:31:05.141Z,23.50
2018-07-27T02:33:32.996Z,23.45
2018-07-27T02:36:00.918Z,23.50
2018-07-27T02:38:28.777Z,23.47
2018-07-27T02:40:56.604Z,23.24
2018-07-27T02:43:24.434Z,23.12
2018-07-27T02:45:52.270Z,23.16
2018-07-27T02:48:20.138Z,23.18
2018-07-27T02:50:47.961Z,23.27
2018-07-27T02:53:15.803Z,23.36
2018-07-27T02:55:43.658Z,23.46
2018-07-27T02:58:11.514Z,23.57
2018-07-27T03:00:39.384Z,23.65
2018-07-27T03:03:07.265Z,23.74
2018-07-27T03:05:35.086Z,23.69
2018-07-27T03:08:02.931Z,23.72
2018-07-27T03:10:30.846Z,23.88
2018-07-27T03:12:58.748Z,24.07
2018-07-27T03:15:26.635Z,24.29
2018-07-27T03:17:54.558Z,24.68
2018-07-27T03:20:22.441Z,25.33
2018-07-27T03:22:50.305Z,26.09
2018-07-27T03:25:18.214Z,26.66
2018-07-27T03:27:46.089Z,26.85
2018-07-27T03:30:14.061Z,26.84
2018-07-27T03:32:41.943Z,27.52
2018-07-27T03:35:09.792Z,28.10
2018-07-27T03:37:37.754Z,27.40
2018-07-27T03:40:05.725Z,26.56
2018-07-27T03:42:33.579Z,26.24
2018-07-27T03:45:01.431Z,25.99
2018-07-27T03:47:29.293Z,26.01
2018-07-27T03:49:57.167Z,25.90
2018-07-27T03:52:24.982Z,25.77
2018-07-27T03:54:52.802Z,25.80
2018-07-27T03:57:20.639Z,25.97
2018-07-27T03:59:48.497Z,26.07
2018-07-27T04:02:16.579Z,26.15
2018-07-27T04:04:44.438Z,26.09
2018-07-27T04:07:12.337Z,25.73
2018-07-27T04:09:40.249Z,25.64
2018-07-27T04:12:08.144Z,25.96
2018-07-27T04:14:36.044Z,26.16
2018-07-27T04:17:03.905Z,26.47
2018-07-27T04:19:31.786Z,26.71
2018-07-27T04:21:59.929Z,26.92
2018-07-27T04:24:27.784Z,27.48
2018-07-27T04:26:55.626Z,28.10
2018-07-27T04:29:23.473Z,28.92
2018-07-27T04:31:51.382Z,31.57
2018-07-27T04:34:19.275Z,34.53
2018-07-27T04:36:47.244Z,38.17
2018-07-27T04:39:15.111Z,40.94
2018-07-27T04:41:42.951Z,42.34
2018-07-27T04:44:10.778Z,42.78
2018-07-27T04:46:38.690Z,42.33
2018-07-27T04:49:06.535Z,39.83
2018-07-27T04:51:34.394Z,39.11
2018-07-27T04:54:02.236Z,39.99
2018-07-27T04:56:30.131Z,38.49
2018-07-27T04:58:58.006Z,37.54
2018-07-27T05:01:25.894Z,39.14
2018-07-27T05:03:55.510Z,39.84
2018-07-27T05:06:23.420Z,40.60
2018-07-27T05:08:56.786Z,41.66
2018-07-27T05:11:24.643Z,42.45
2018-07-27T05:13:52.532Z,40.32
2018-07-27T05:16:20.412Z,36.24
2018-07-27T05:18:48.277Z,35.77
2018-07-27T05:21:16.135Z,34.56
2018-07-27T05:23:43.965Z,34.70
2018-07-27T05:26:11.818Z,35.72
2018-07-27T05:28:39.675Z,35.60
2018-07-27T05:31:07.537Z,36.22
2018-07-27T05:33:35.355Z,36.79
2018-07-27T05:36:03.282Z,38.20
2018-07-27T05:38:31.126Z,39.38
2018-07-27T05:40:58.986Z,39.39
2018-07-27T05:43:26.849Z,38.99
2018-07-27T05:45:54.690Z,39.56
2018-07-27T05:48:22.528Z,38.97
2018-07-27T05:50:50.389Z,38.46
2018-07-27T05:53:18.290Z,38.15
2018-07-27T05:55:46.104Z,38.38
2018-07-27T05:58:13.949Z,37.94
2018-07-27T06:00:41.766Z,39.61
2018-07-27T06:03:09.695Z,38.87
2018-07-27T06:05:37.570Z,38.62
2018-07-27T06:08:05.453Z,36.38
2018-07-27T06:10:33.372Z,35.60
2018-07-27T06:13:01.341Z,34.57
2018-07-27T06:15:29.193Z,32.70
2018-07-27T06:17:57.084Z,31.38
2018-07-27T06:20:24.909Z,32.04
2018-07-27T06:22:52.829Z,32.92
2018-07-27T06:25:20.721Z,34.33
2018-07-27T06:27:48.587Z,33.59
2018-07-27T06:30:16.523Z,34.38
2018-07-27T06:32:44.368Z,35.34
2018-07-27T06:35:12.272Z,34.51
2018-07-27T06:37:40.195Z,32.66
2018-07-27T06:40:08.095Z,31.91
2018-07-27T06:42:35.933Z,32.86
2018-07-27T06:45:05.098Z,34.38
2018-07-27T06:47:32.989Z,35.60
2018-07-27T06:50:00.853Z,35.19
2018-07-27T06:52:28.764Z,33.50
2018-07-27T06:54:56.621Z,34.91
2018-07-27T06:57:24.474Z,35.14
2018-07-27T06:59:52.325Z,34.04
2018-07-27T07:02:20.162Z,34.90
2018-07-27T07:04:48.024Z,36.13
2018-07-27T07:07:15.907Z,35.92
2018-07-27T07:09:43.710Z,35.25
2018-07-27T07:12:11.537Z,34.94
2018-07-27T07:14:39.373Z,33.95
2018-07-27T07:17:07.268Z,33.75
2018-07-27T07:19:35.121Z,33.24
2018-07-27T07:22:03.006Z,33.25
2018-07-27T07:24:30.841Z,34.84
2018-07-27T07:26:58.694Z,34.76
2018-07-27T07:29:26.527Z,34.76
2018-07-27T07:31:54.396Z,34.42
2018-07-27T07:34:22.230Z,35.55
2018-07-27T07:36:50.083Z,34.64
2018-07-27T07:39:17.957Z,35.92
2018-07-27T07:41:45.816Z,37.38
2018-07-27T07:44:13.675Z,37.32
2018-07-27T07:46:41.549Z,36.50
2018-07-27T07:49:09.452Z,35.36
2018-07-27T07:51:37.858Z,33.79
2018-07-27T07:54:05.855Z,34.87
2018-07-27T07:56:33.990Z,34.72
2018-07-27T07:59:02.219Z,35.37
2018-07-27T08:01:30.244Z,35.52
2018-07-27T08:03:58.122Z,34.63
2018-07-27T08:06:26.018Z,33.62
2018-07-27T08:08:54.454Z,33.74
2018-07-27T08:11:22.313Z,35.02
2018-07-27T08:13:50.241Z,34.57
2018-07-27T08:16:18.128Z,34.60
2018-07-27T08:18:45.989Z,35.83
2018-07-27T08:21:14.306Z,34.93
2018-07-27T08:23:42.276Z,35.51
2018-07-27T08:26:34.437Z,35.82
2018-07-27T08:29:02.505Z,35.29
2018-07-27T08:31:31.013Z,35.58
2018-07-27T08:33:58.861Z,35.67
2018-07-27T08:36:27.484Z,35.65
2018-07-27T08:38:55.675Z,35.09
2018-07-27T08:41:23.937Z,33.76
2018-07-27T08:43:52.433Z,32.10
2018-07-27T08:46:20.646Z,31.99
2018-07-27T08:48:48.740Z,31.16
2018-07-27T08:51:16.922Z,31.09
2018-07-27T08:53:45.053Z,31.54
2018-07-27T08:56:13.251Z,32.55
2018-07-27T08:58:41.363Z,32.47
2018-07-27T09:01:09.561Z,32.85
2018-07-27T09:03:37.718Z,33.26
2018-07-27T09:06:06.126Z,33.87
2018-07-27T09:08:34.232Z,33.32
2018-07-27T09:11:02.313Z,33.24
2018-07-27T09:13:30.601Z,32.76
2018-07-27T09:15:58.719Z,32.04
2018-07-27T09:18:26.876Z,32.38
2018-07-27T09:20:55.032Z,31.88
2018-07-27T09:23:23.196Z,33.43
2018-07-27T09:25:51.296Z,32.99
2018-07-27T09:28:19.387Z,31.33
2018-07-27T09:30:47.546Z,30.61
2018-07-27T09:33:16.011Z,31.00
2018-07-27T09:35:44.178Z,31.60
2018-07-27T09:38:12.269Z,31.13
2018-07-27T09:40:40.383Z,31.69
2018-07-27T09:43:08.454Z,32.24
2018-07-27T09:45:36.581Z,32.22
2018-07-27T09:48:04.794Z,32.96
2018-07-27T09:50:32.933Z,33.17
2018-07-27T09:53:01.018Z,33.15
2018-07-27T09:55:29.117Z,31.94
2018-07-27T09:57:57.206Z,32.76
2018-07-27T10:00:31.006Z,33.97
2018-07-27T10:02:59.129Z,33.80
2018-07-27T10:05:27.216Z,33.41
2018-07-27T10:07:55.357Z,32.14
2018-07-27T10:10:23.483Z,31.72
2018-07-27T10:12:51.895Z,32.60
2018-07-27T10:15:20.001Z,33.40
2018-07-27T10:17:48.558Z,32.73
2018-07-27T10:20:16.715Z,33.30
2018-07-27T10:22:44.857Z,33.15
2018-07-27T10:25:12.925Z,33.39
2018-07-27T10:27:41.134Z,32.85
2018-07-27T10:30:09.261Z,33.36
2018-07-27T10:32:37.455Z,33.62
2018-07-27T10:35:05.573Z,33.69
2018-07-27T10:37:33.769Z,35.18
2018-07-27T10:40:01.910Z,34.02
2018-07-27T10:42:30.105Z,33.98
2018-07-27T10:44:58.284Z,34.30
2018-07-27T10:47:26.457Z,33.56
2018-07-27T10:49:54.543Z,32.84
2018-07-27T10:52:22.726Z,34.62
2018-07-27T10:54:50.910Z,33.15
2018-07-27T10:57:19.054Z,32.47
2018-07-27T10:59:47.237Z,33.40
2018-07-27T11:02:15.416Z,34.11
2018-07-27T11:04:43.546Z,33.95
2018-07-27T11:07:11.705Z,33.92
2018-07-27T11:09:39.868Z,33.39
2018-07-27T11:12:08.061Z,32.62
2018-07-27T11:14:37.062Z,33.18
2018-07-27T11:17:05.172Z,33.25
2018-07-27T11:19:33.675Z,34.03
2018-07-27T11:22:01.781Z,34.30
2018-07-27T11:24:29.893Z,34.49
2018-07-27T11:26:58.013Z,34.41
2018-07-27T11:29:26.186Z,33.92
2018-07-27T11:31:54.493Z,34.15
2018-07-27T11:34:22.605Z,34.25
2018-07-27T11:36:50.723Z,34.90
2018-07-27T11:39:18.862Z,35.14
2018-07-27T11:41:47.495Z,34.39
2018-07-27T11:44:15.685Z,34.02
2018-07-27T11:46:43.746Z,33.33
2018-07-27T11:49:11.936Z,34.04
2018-07-27T11:51:39.995Z,34.69
2018-07-27T11:54:08.206Z,35.45
2018-07-27T11:56:36.286Z,35.77
2018-07-27T11:59:04.511Z,36.20
2018-07-27T12:01:32.656Z,35.57
2018-07-27T12:04:00.761Z,34.94
2018-07-27T12:06:29.041Z,35.11
2018-07-27T12:08:57.169Z,35.79
2018-07-27T12:11:25.318Z,35.07
2018-07-27T12:13:53.432Z,35.74
2018-07-27T12:16:21.566Z,36.94
2018-07-27T12:18:49.679Z,37.18
2018-07-27T12:21:17.913Z,37.31
2018-07-27T12:23:46.005Z,36.56
2018-07-27T12:26:14.110Z,37.15
2018-07-27T12:28:42.189Z,36.19
2018-07-27T12:31:10.296Z,33.97
2018-07-27T12:33:38.357Z,34.56
2018-07-27T12:36:06.611Z,35.27
2018-07-27T12:38:35.083Z,35.96
2018-07-27T12:41:03.168Z,35.65
2018-07-27T12:43:31.292Z,36.19
2018-07-27T12:45:59.348Z,35.61
2018-07-27T12:48:27.292Z,35.88
2018-07-27T12:50:55.288Z,36.83
2018-07-27T12:53:23.143Z,36.30
2018-07-27T12:55:51.028Z,36.28
2018-07-27T12:58:18.896Z,35.17
2018-07-27T13:00:46.749Z,35.77
2018-07-27T13:03:14.635Z,35.06
2018-07-27T13:05:42.537Z,34.84
2018-07-27T13:08:10.416Z,31.84
2018-07-27T13:10:38.242Z,30.01
2018-07-27T13:13:06.128Z,28.77
2018-07-27T13:15:33.970Z,28.32
2018-07-27T13:18:02.172Z,28.31
2018-07-27T13:20:41.187Z,27.87
2018-07-27T13:23:09.112Z,28.96
2018-07-27T13:25:36.919Z,29.08
2018-07-27T13:30:32.755Z,28.14
2018-07-27T13:35:28.323Z,27.74
2018-07-27T13:37:56.186Z,27.61
2018-07-27T13:40:24.033Z,27.13
2018-07-27T13:42:52.041Z,27.02
2018-07-27T13:45:20.041Z,27.00
2018-07-27T13:47:48.062Z,27.98
2018-07-27T13:50:15.992Z,27.13
2018-07-27T13:52:43.997Z,27.84
2018-07-27T13:55:11.935Z,28.55
2018-07-27T13:57:39.842Z,29.08
2018-07-27T14:00:07.867Z,29.58
2018-07-27T14:02:35.802Z,29.35
2018-07-27T14:05:03.855Z,29.47
2018-07-27T14:07:31.955Z,29.61
2018-07-27T14:09:59.980Z,28.54
2018-07-27T14:12:27.989Z,27.93
2018-07-27T14:14:55.944Z,28.33
2018-07-27T14:17:23.790Z,28.33
2018-07-27T14:19:51.637Z,28.12
2018-07-27T14:22:19.476Z,28.60
2018-07-27T14:24:47.290Z,28.49
2018-07-27T14:27:15.115Z,28.77
2018-07-27T14:29:43.138Z,28.24
2018-07-27T14:32:10.977Z,28.45
2018-07-27T14:34:38.785Z,28.25
2018-07-27T14:37:06.662Z,28.04
2018-07-27T14:39:34.523Z,27.41
2018-07-27T14:42:02.506Z,27.28
2018-07-27T14:44:30.434Z,27.13
2018-07-27T14:46:58.225Z,26.65
2018-07-27T14:49:26.049Z,26.28
2018-07-27T14:51:53.914Z,26.37
2018-07-27T14:54:21.742Z,26.43
2018-07-27T14:56:49.570Z,26.38
2018-07-27T14:59:17.697Z,25.96
2018-07-27T15:01:45.547Z,26.44
2018-07-27T15:04:13.390Z,26.83
2018-07-27T15:06:41.300Z,26.68
2018-07-27T15:09:13.133Z,26.95
2018-07-27T15:11:41.614Z,27.00
2018-07-27T15:14:09.534Z,27.17
2018-07-27T15:16:37.494Z,27.14
2018-07-27T15:19:05.379Z,26.79
2018-07-27T15:21:33.227Z,26.88
2018-07-27T15:24:01.143Z,26.58
2018-07-27T15:26:29.226Z,26.79
2018-07-27T15:28:57.218Z,26.73
2018-07-27T15:31:25.041Z,26.98
2018-07-27T15:33:52.912Z,27.29
2018-07-27T15:36:20.829Z,27.59
2018-07-27T15:38:48.700Z,27.43
2018-07-27T15:41:16.520Z,27.49
2018-07-27T15:43:44.389Z,27.53
2018-07-27T15:46:12.261Z,27.45
2018-07-27T15:48:40.142Z,27.15
2018-07-27T15:51:08.059Z,27.32
2018-07-27T15:53:35.897Z,27.33
2018-07-27T15:56:03.734Z,27.46
2018-07-27T15:58:31.613Z,27.75
2018-07-27T16:00:59.506Z,28.05
2018-07-27T16:03:27.369Z,28.04
2018-07-27T16:05:55.190Z,28.31
2018-07-27T16:08:23.022Z,28.40
2018-07-27T16:10:50.894Z,28.18
2018-07-27T16:13:18.741Z,28.43
2018-07-27T16:15:46.754Z,28.50
2018-07-27T16:18:14.645Z,28.20
2018-07-27T16:20:42.493Z,28.14
2018-07-27T16:23:10.369Z,28.06
2018-07-27T16:25:38.272Z,27.99
2018-07-27T16:28:06.090Z,28.00
2018-07-27T16:30:33.921Z,27.68
2018-07-27T16:33:01.924Z,27.36
2018-07-27T16:35:29.790Z,27.23
2018-07-27T16:37:57.789Z,26.99
2018-07-27T16:40:25.677Z,26.97
2018-07-27T16:42:53.509Z,26.73
2018-07-27T16:45:21.344Z,26.75
2018-07-27T16:47:49.400Z,26.52
2018-07-27T16:50:17.366Z,26.51
2018-07-27T16:52:45.227Z,26.66
2018-07-27T16:55:13.144Z,26.57
2018-07-27T16:57:41.020Z,26.39
2018-07-27T17:00:08.941Z,26.37
2018-07-27T17:02:36.797Z,26.37
2018-07-27T17:05:05.042Z,26.34
2018-07-27T17:07:32.999Z,26.68
2018-07-27T17:10:00.920Z,26.56
2018-07-27T17:12:28.782Z,26.47
2018-07-27T17:14:56.617Z,26.64
2018-07-27T17:17:24.535Z,26.49
2018-07-27T17:19:52.467Z,26.51
2018-07-27T17:22:20.368Z,26.20
2018-07-27T17:24:48.321Z,26.18
2018-07-27T17:27:16.226Z,26.15
2018-07-27T17:29:44.274Z,26.28
2018-07-27T17:32:12.172Z,26.06
2018-07-27T17:34:40.061Z,26.18
2018-07-27T17:37:08.008Z,26.27
2018-07-27T17:39:35.944Z,26.24
2018-07-27T17:42:03.875Z,26.34
2018-07-27T17:44:31.792Z,26.46
2018-07-27T17:47:00.719Z,26.34
2018-07-27T17:49:28.600Z,26.49
2018-07-27T17:51:56.497Z,26.60
2018-07-27T17:54:24.408Z,26.52
2018-07-27T17:56:52.256Z,26.13
2018-07-27T17:59:20.113Z,25.83
2018-07-27T18:01:48.079Z,25.90
2018-07-27T18:04:15.945Z,25.93
2018-07-27T18:06:43.877Z,25.75
2018-07-27T18:09:12.532Z,25.76
2018-07-27T18:11:40.352Z,25.81
2018-07-27T18:14:08.282Z,26.00
2018-07-27T18:16:36.166Z,26.26
2018-07-27T18:19:04.121Z,26.03
2018-07-27T18:21:32.062Z,26.13
2018-07-27T18:23:59.935Z,26.22
2018-07-27T18:26:27.833Z,25.79
2018-07-27T18:28:55.733Z,25.46
2018-07-27T18:31:23.632Z,25.56
2018-07-27T18:33:51.480Z,25.91
2018-07-27T18:36:19.338Z,26.07
2018-07-27T18:38:47.190Z,26.09
2018-07-27T18:41:15.059Z,26.00
2018-07-27T18:43:42.942Z,25.90
2018-07-27T18:46:10.810Z,25.93
2018-07-27T18:48:38.880Z,25.96
2018-07-27T18:51:06.810Z,25.95
2018-07-27T18:53:34.708Z,25.83
2018-07-27T18:56:02.546Z,25.75
2018-07-27T18:58:30.382Z,25.69
2018-07-27T19:00:58.224Z,25.57
2018-07-27T19:03:26.079Z,25.41
2018-07-27T19:05:53.934Z,25.51
2018-07-27T19:08:21.801Z,25.65
2018-07-27T19:10:49.695Z,25.87
2018-07-27T19:13:17.653Z,25.70
2018-07-27T19:15:45.576Z,25.30
2018-07-27T19:18:13.465Z,25.28
2018-07-27T19:20:41.304Z,25.50
2018-07-27T19:23:09.233Z,25.59
2018-07-27T19:25:37.097Z,25.59
2018-07-27T19:28:05.323Z,25.50
2018-07-27T19:30:33.252Z,25.05
2018-07-27T19:33:01.153Z,25.18
2018-07-27T19:35:29.025Z,25.26
2018-07-27T19:37:56.910Z,25.46
2018-07-27T19:40:24.824Z,25.48
2018-07-27T19:42:52.689Z,25.51
2018-07-27T19:45:20.603Z,25.65
2018-07-27T19:47:48.549Z,25.70
2018-07-27T19:50:16.423Z,25.88
2018-07-27T19:52:44.300Z,25.86
2018-07-27T19:55:12.155Z,25.92
2018-07-27T19:57:40.060Z,25.70
2018-07-27T20:00:08.221Z,25.55
2018-07-27T20:02:36.131Z,25.45
2018-07-27T20:05:04.184Z,25.54
2018-07-27T20:07:32.107Z,25.62
2018-07-27T20:09:59.999Z,25.56
2018-07-27T20:12:27.941Z,25.27
2018-07-27T20:14:55.824Z,25.28
2018-07-27T20:17:23.690Z,25.34
2018-07-27T20:19:51.569Z,25.44
2018-07-27T20:22:19.545Z,25.47
2018-07-27T20:24:47.445Z,25.47
2018-07-27T20:27:15.321Z,25.39
2018-07-27T20:29:43.189Z,25.30
2018-07-27T20:32:11.077Z,25.12
2018-07-27T20:34:38.953Z,24.95
2018-07-27T20:37:06.838Z,25.05
2018-07-27T20:39:34.708Z,24.92
2018-07-27T20:42:02.608Z,24.83
2018-07-27T20:44:30.497Z,24.71
2018-07-27T20:46:58.417Z,24.81
2018-07-27T20:49:26.269Z,24.94
2018-07-27T20:51:54.689Z,25.00
2018-07-27T20:54:22.592Z,25.08
2018-07-27T20:56:50.490Z,24.71
2018-07-27T20:59:18.418Z,24.53
2018-07-27T21:01:46.277Z,24.44
2018-07-27T21:04:14.169Z,24.55
2018-07-27T21:06:42.397Z,24.49
2018-07-27T21:09:11.364Z,24.60
2018-07-27T21:11:39.520Z,24.75
2018-07-27T21:14:07.701Z,24.84
2018-07-27T21:16:35.666Z,24.85
2018-07-27T21:19:03.625Z,24.93
2018-07-27T21:21:31.467Z,24.97
2018-07-27T21:23:59.344Z,24.81
2018-07-27T21:26:27.486Z,24.78
2018-07-27T21:28:55.340Z,24.89
2018-07-27T21:31:23.224Z,24.96
2018-07-27T21:33:51.076Z,24.94
2018-07-27T21:36:18.922Z,24.91
2018-07-27T21:38:46.753Z,24.97
2018-07-27T21:41:14.623Z,24.99
2018-07-27T21:43:42.503Z,24.87
2018-07-27T21:46:10.352Z,24.48
2018-07-27T21:48:38.246Z,24.31
2018-07-27T21:51:06.132Z,24.26
2018-07-27T21:53:34.056Z,24.24
2018-07-27T21:56:01.949Z,24.43
2018-07-27T21:58:29.844Z,24.47
2018-07-27T22:00:57.876Z,24.51
2018-07-27T22:03:25.786Z,24.53
2018-07-27T22:05:53.681Z,24.43
2018-07-27T22:08:21.583Z,24.52
2018-07-27T22:10:49.495Z,24.65
2018-07-27T22:13:17.357Z,24.64
2018-07-27T22:15:45.228Z,24.61
2018-07-27T22:18:13.073Z,24.63
2018-07-27T22:20:40.977Z,24.68
2018-07-27T22:23:08.808Z,24.62
2018-07-27T22:25:36.667Z,24.52
2018-07-27T22:28:04.580Z,24.47
2018-07-27T22:30:32.474Z,24.45
2018-07-27T22:33:00.333Z,24.49
2018-07-27T22:35:28.165Z,24.47
2018-07-27T22:37:55.982Z,24.36
2018-07-27T22:40:23.841Z,24.39
2018-07-27T22:42:51.680Z,24.47
2018-07-27T22:45:19.541Z,24.53
2018-07-27T22:47:47.345Z,24.46
2018-07-27T22:50:15.206Z,24.45
2018-07-27T22:52:43.038Z,24.42
2018-07-27T22:55:11.940Z,24.50
2018-07-27T22:57:40.869Z,24.40
2018-07-27T23:00:13.029Z,24.22
2018-07-27T23:02:41.388Z,24.29
2018-07-27T23:05:09.364Z,24.14
2018-07-27T23:07:37.733Z,24.02
2018-07-27T23:10:06.420Z,23.99
2018-07-27T23:12:34.261Z,24.13
2018-07-27T23:15:02.228Z,24.25
2018-07-27T23:17:30.123Z,24.32
2018-07-27T23:19:58.070Z,24.35
2018-07-27T23:22:26.023Z,24.34
2018-07-27T23:24:53.846Z,24.44
2018-07-27T23:27:21.765Z,24.44
2018-07-27T23:29:49.617Z,24.32
2018-07-27T23:32:17.442Z,24.31
2018-07-27T23:34:45.260Z,24.12
2018-07-27T23:37:13.081Z,24.17
2018-07-27T23:39:40.901Z,24.33
2018-07-27T23:42:08.775Z,24.42
2018-07-27T23:44:36.626Z,24.47
2018-07-27T23:47:04.498Z,24.50
2018-07-27T23:49:32.334Z,24.52
2018-07-27T23:52:00.338Z,24.52
2018-07-27T23:54:28.162Z,24.47
2018-07-27T23:56:55.986Z,24.40
2018-07-27T23:59:23.912Z,24.41
